sensor_id;sensor_type;location;lat;lon;timestamp;P1;durP1;ratioP1;P2;durP2;ratioP2
22007;SDS011;11168;56.976;24.168;2023-03-07T00:00:20;14.02;;;6.30;;
22007;SDS011;11168;56.976;24.168;2023-03-07T00:02:52;10.13;;;5.00;;
22007;SDS011;11168;56.976;24.168;2023-03-07T00:05:19;11.07;;;5.25;;
22007;SDS011;11168;56.976;24.168;2023-03-07T00:07:46;10.45;;;4.95;;
22007;SDS011;11168;56.976;24.168;2023-03-07T00:10:13;8.90;;;4.82;;
22007;SDS011;11168;56.976;24.168;2023-03-07T00:12:40;11.43;;;4.00;;
22007;SDS011;11168;56.976;24.168;2023-03-07T00:15:07;10.35;;;5.35;;
22007;SDS011;11168;56.976;24.168;2023-03-07T00:17:35;11.07;;;5.35;;
22007;SDS011;11168;56.976;24.168;2023-03-07T00:20:04;12.18;;;5.05;;
22007;SDS011;11168;56.976;24.168;2023-03-07T00:22:35;9.90;;;5.55;;
22007;SDS011;11168;56.976;24.168;2023-03-07T00:25:03;9.27;;;5.00;;
22007;SDS011;11168;56.976;24.168;2023-03-07T00:27:30;11.35;;;4.97;;
22007;SDS011;11168;56.976;24.168;2023-03-07T00:29:58;11.05;;;4.82;;
22007;SDS011;11168;56.976;24.168;2023-03-07T00:32:25;12.27;;;5.20;;
22007;SDS011;11168;56.976;24.168;2023-03-07T00:34:53;10.23;;;4.68;;
22007;SDS011;11168;56.976;24.168;2023-03-07T00:37:20;7.80;;;4.15;;
22007;SDS011;11168;56.976;24.168;2023-03-07T00:39:48;9.80;;;4.68;;
22007;SDS011;11168;56.976;24.168;2023-03-07T00:42:14;8.23;;;4.20;;
22007;SDS011;11168;56.976;24.168;2023-03-07T00:44:41;7.97;;;4.13;;
22007;SDS011;11168;56.976;24.168;2023-03-07T00:47:08;10.32;;;4.57;;
22007;SDS011;11168;56.976;24.168;2023-03-07T00:49:35;8.52;;;4.03;;
22007;SDS011;11168;56.976;24.168;2023-03-07T00:52:02;14.48;;;4.47;;
22007;SDS011;11168;56.976;24.168;2023-03-07T00:54:29;9.45;;;4.63;;
22007;SDS011;11168;56.976;24.168;2023-03-07T00:56:56;11.60;;;5.20;;
22007;SDS011;11168;56.976;24.168;2023-03-07T00:59:23;9.57;;;5.10;;
22007;SDS011;11168;56.976;24.168;2023-03-07T01:01:50;12.52;;;5.53;;
22007;SDS011;11168;56.976;24.168;2023-03-07T01:04:17;10.07;;;5.50;;
22007;SDS011;11168;56.976;24.168;2023-03-07T01:06:44;12.55;;;5.85;;
22007;SDS011;11168;56.976;24.168;2023-03-07T01:09:11;13.30;;;5.55;;
22007;SDS011;11168;56.976;24.168;2023-03-07T01:11:38;12.00;;;5.53;;
22007;SDS011;11168;56.976;24.168;2023-03-07T01:14:05;12.65;;;5.60;;
22007;SDS011;11168;56.976;24.168;2023-03-07T01:16:33;11.68;;;4.85;;
22007;SDS011;11168;56.976;24.168;2023-03-07T01:19:03;15.55;;;5.80;;
22007;SDS011;11168;56.976;24.168;2023-03-07T01:21:33;12.50;;;5.50;;
22007;SDS011;11168;56.976;24.168;2023-03-07T01:24:05;10.85;;;5.13;;
22007;SDS011;11168;56.976;24.168;2023-03-07T01:26:33;11.27;;;4.70;;
22007;SDS011;11168;56.976;24.168;2023-03-07T01:29:01;9.02;;;4.28;;
22007;SDS011;11168;56.976;24.168;2023-03-07T01:31:30;8.38;;;4.70;;
22007;SDS011;11168;56.976;24.168;2023-03-07T01:33:58;9.68;;;4.32;;
22007;SDS011;11168;56.976;24.168;2023-03-07T01:36:27;11.52;;;4.55;;
22007;SDS011;11168;56.976;24.168;2023-03-07T01:38:57;9.30;;;4.72;;
22007;SDS011;11168;56.976;24.168;2023-03-07T01:41:28;10.10;;;4.75;;
22007;SDS011;11168;56.976;24.168;2023-03-07T01:43:58;10.50;;;5.07;;
22007;SDS011;11168;56.976;24.168;2023-03-07T01:46:33;7.22;;;4.07;;
22007;SDS011;11168;56.976;24.168;2023-03-07T01:49:10;9.80;;;4.68;;
22007;SDS011;11168;56.976;24.168;2023-03-07T01:51:46;10.73;;;4.50;;
22007;SDS011;11168;56.976;24.168;2023-03-07T01:54:27;9.90;;;4.70;;
22007;SDS011;11168;56.976;24.168;2023-03-07T01:56:55;10.35;;;4.97;;
22007;SDS011;11168;56.976;24.168;2023-03-07T01:59:26;9.25;;;4.30;;
22007;SDS011;11168;56.976;24.168;2023-03-07T02:01:58;7.57;;;4.15;;
22007;SDS011;11168;56.976;24.168;2023-03-07T02:05:03;9.50;;;4.00;;
22007;SDS011;11168;56.976;24.168;2023-03-07T02:07:22;10.77;;;4.15;;
22007;SDS011;11168;56.976;24.168;2023-03-07T02:09:52;7.68;;;3.60;;
22007;SDS011;11168;56.976;24.168;2023-03-07T02:12:21;8.05;;;3.80;;
22007;SDS011;11168;56.976;24.168;2023-03-07T02:14:48;9.52;;;4.03;;
22007;SDS011;11168;56.976;24.168;2023-03-07T02:17:16;8.95;;;3.90;;
22007;SDS011;11168;56.976;24.168;2023-03-07T02:22:30;8.70;;;4.53;;
22007;SDS011;11168;56.976;24.168;2023-03-07T02:25:11;11.60;;;4.63;;
22007;SDS011;11168;56.976;24.168;2023-03-07T02:27:45;11.40;;;4.75;;
22007;SDS011;11168;56.976;24.168;2023-03-07T02:30:14;9.38;;;4.50;;
22007;SDS011;11168;56.976;24.168;2023-03-07T02:32:40;11.38;;;4.13;;
22007;SDS011;11168;56.976;24.168;2023-03-07T02:35:12;11.07;;;3.83;;
22007;SDS011;11168;56.976;24.168;2023-03-07T02:37:43;9.90;;;3.72;;
22007;SDS011;11168;56.976;24.168;2023-03-07T02:40:13;6.90;;;3.67;;
22007;SDS011;11168;56.976;24.168;2023-03-07T02:42:41;8.65;;;3.47;;
22007;SDS011;11168;56.976;24.168;2023-03-07T02:45:10;5.70;;;2.95;;
22007;SDS011;11168;56.976;24.168;2023-03-07T02:47:40;9.48;;;3.80;;
22007;SDS011;11168;56.976;24.168;2023-03-07T02:50:08;7.28;;;3.38;;
22007;SDS011;11168;56.976;24.168;2023-03-07T02:52:39;10.68;;;3.70;;
22007;SDS011;11168;56.976;24.168;2023-03-07T02:55:07;11.93;;;4.05;;
22007;SDS011;11168;56.976;24.168;2023-03-07T02:57:34;8.30;;;3.88;;
22007;SDS011;11168;56.976;24.168;2023-03-07T03:00:02;8.15;;;4.20;;
22007;SDS011;11168;56.976;24.168;2023-03-07T03:02:32;11.85;;;4.90;;
22007;SDS011;11168;56.976;24.168;2023-03-07T03:04:59;13.55;;;5.43;;
22007;SDS011;11168;56.976;24.168;2023-03-07T03:07:27;10.25;;;4.43;;
22007;SDS011;11168;56.976;24.168;2023-03-07T03:09:53;11.00;;;4.13;;
22007;SDS011;11168;56.976;24.168;2023-03-07T03:12:20;8.80;;;4.30;;
22007;SDS011;11168;56.976;24.168;2023-03-07T03:14:48;7.60;;;4.03;;
22007;SDS011;11168;56.976;24.168;2023-03-07T03:17:15;9.93;;;4.43;;
22007;SDS011;11168;56.976;24.168;2023-03-07T03:19:42;12.45;;;5.03;;
22007;SDS011;11168;56.976;24.168;2023-03-07T03:22:09;10.20;;;4.63;;
22007;SDS011;11168;56.976;24.168;2023-03-07T03:24:37;6.82;;;3.83;;
22007;SDS011;11168;56.976;24.168;2023-03-07T03:27:05;9.52;;;4.10;;
22007;SDS011;11168;56.976;24.168;2023-03-07T03:29:33;8.45;;;4.35;;
22007;SDS011;11168;56.976;24.168;2023-03-07T03:32:00;17.20;;;5.78;;
22007;SDS011;11168;56.976;24.168;2023-03-07T03:34:27;15.05;;;6.35;;
22007;SDS011;11168;56.976;24.168;2023-03-07T03:36:54;15.38;;;7.07;;
22007;SDS011;11168;56.976;24.168;2023-03-07T03:39:21;18.70;;;7.72;;
22007;SDS011;11168;56.976;24.168;2023-03-07T03:41:48;18.60;;;8.23;;
22007;SDS011;11168;56.976;24.168;2023-03-07T03:44:15;16.15;;;8.25;;
22007;SDS011;11168;56.976;24.168;2023-03-07T03:46:42;14.30;;;7.45;;
22007;SDS011;11168;56.976;24.168;2023-03-07T03:49:11;22.38;;;10.35;;
22007;SDS011;11168;56.976;24.168;2023-03-07T03:51:38;25.52;;;10.60;;
22007;SDS011;11168;56.976;24.168;2023-03-07T03:54:05;23.60;;;8.85;;
22007;SDS011;11168;56.976;24.168;2023-03-07T03:56:33;18.33;;;9.60;;
22007;SDS011;11168;56.976;24.168;2023-03-07T03:58:59;19.08;;;9.38;;
22007;SDS011;11168;56.976;24.168;2023-03-07T04:01:27;15.40;;;8.48;;
22007;SDS011;11168;56.976;24.168;2023-03-07T04:03:55;14.27;;;7.18;;
22007;SDS011;11168;56.976;24.168;2023-03-07T04:06:23;13.68;;;7.43;;
22007;SDS011;11168;56.976;24.168;2023-03-07T04:08:52;14.45;;;7.32;;
22007;SDS011;11168;56.976;24.168;2023-03-07T04:11:20;18.58;;;8.35;;
22007;SDS011;11168;56.976;24.168;2023-03-07T04:13:48;12.55;;;6.07;;
22007;SDS011;11168;56.976;24.168;2023-03-07T04:16:16;10.98;;;5.70;;
22007;SDS011;11168;56.976;24.168;2023-03-07T04:18:43;13.00;;;5.75;;
22007;SDS011;11168;56.976;24.168;2023-03-07T04:21:10;10.82;;;5.38;;
22007;SDS011;11168;56.976;24.168;2023-03-07T04:23:38;15.10;;;6.47;;
22007;SDS011;11168;56.976;24.168;2023-03-07T04:26:05;15.88;;;6.28;;
22007;SDS011;11168;56.976;24.168;2023-03-07T04:28:34;14.82;;;5.57;;
22007;SDS011;11168;56.976;24.168;2023-03-07T04:31:28;15.27;;;6.68;;
22007;SDS011;11168;56.976;24.168;2023-03-07T04:33:55;11.43;;;5.20;;
22007;SDS011;11168;56.976;24.168;2023-03-07T04:36:23;10.73;;;4.80;;
22007;SDS011;11168;56.976;24.168;2023-03-07T04:38:50;12.13;;;5.57;;
22007;SDS011;11168;56.976;24.168;2023-03-07T04:41:18;12.40;;;5.22;;
22007;SDS011;11168;56.976;24.168;2023-03-07T04:43:51;10.77;;;4.70;;
22007;SDS011;11168;56.976;24.168;2023-03-07T04:46:18;12.35;;;5.30;;
22007;SDS011;11168;56.976;24.168;2023-03-07T04:48:46;10.75;;;5.47;;
22007;SDS011;11168;56.976;24.168;2023-03-07T04:51:13;10.50;;;5.20;;
22007;SDS011;11168;56.976;24.168;2023-03-07T04:53:40;8.43;;;5.05;;
22007;SDS011;11168;56.976;24.168;2023-03-07T04:56:07;10.00;;;5.05;;
22007;SDS011;11168;56.976;24.168;2023-03-07T04:58:35;11.65;;;5.88;;
22007;SDS011;11168;56.976;24.168;2023-03-07T05:01:03;11.52;;;5.55;;
22007;SDS011;11168;56.976;24.168;2023-03-07T05:03:30;13.02;;;5.28;;
22007;SDS011;11168;56.976;24.168;2023-03-07T05:06:02;11.65;;;5.60;;
22007;SDS011;11168;56.976;24.168;2023-03-07T05:08:33;14.48;;;5.80;;
22007;SDS011;11168;56.976;24.168;2023-03-07T05:11:00;16.55;;;6.45;;
22007;SDS011;11168;56.976;24.168;2023-03-07T05:13:27;15.05;;;7.25;;
22007;SDS011;11168;56.976;24.168;2023-03-07T05:15:55;20.92;;;7.35;;
22007;SDS011;11168;56.976;24.168;2023-03-07T05:18:24;13.82;;;7.05;;
22007;SDS011;11168;56.976;24.168;2023-03-07T05:20:52;13.38;;;6.43;;
22007;SDS011;11168;56.976;24.168;2023-03-07T05:23:19;14.27;;;6.70;;
22007;SDS011;11168;56.976;24.168;2023-03-07T05:25:46;15.40;;;6.82;;
22007;SDS011;11168;56.976;24.168;2023-03-07T05:28:13;11.27;;;6.40;;
22007;SDS011;11168;56.976;24.168;2023-03-07T05:30:42;12.60;;;6.40;;
22007;SDS011;11168;56.976;24.168;2023-03-07T05:33:10;14.00;;;6.82;;
22007;SDS011;11168;56.976;24.168;2023-03-07T05:35:37;16.00;;;6.57;;
22007;SDS011;11168;56.976;24.168;2023-03-07T05:38:05;16.17;;;7.20;;
22007;SDS011;11168;56.976;24.168;2023-03-07T05:40:34;16.48;;;7.50;;
22007;SDS011;11168;56.976;24.168;2023-03-07T05:43:02;19.50;;;7.55;;
22007;SDS011;11168;56.976;24.168;2023-03-07T05:45:29;12.52;;;6.68;;
22007;SDS011;11168;56.976;24.168;2023-03-07T05:47:56;17.60;;;7.85;;
22007;SDS011;11168;56.976;24.168;2023-03-07T05:50:25;14.52;;;6.25;;
22007;SDS011;11168;56.976;24.168;2023-03-07T05:52:52;20.95;;;8.80;;
22007;SDS011;11168;56.976;24.168;2023-03-07T05:55:19;19.90;;;8.38;;
22007;SDS011;11168;56.976;24.168;2023-03-07T05:57:46;16.23;;;7.68;;
22007;SDS011;11168;56.976;24.168;2023-03-07T06:00:13;15.43;;;7.47;;
22007;SDS011;11168;56.976;24.168;2023-03-07T06:02:41;16.50;;;8.13;;
22007;SDS011;11168;56.976;24.168;2023-03-07T06:05:08;20.25;;;8.25;;
22007;SDS011;11168;56.976;24.168;2023-03-07T06:07:35;17.83;;;8.25;;
22007;SDS011;11168;56.976;24.168;2023-03-07T06:10:02;17.00;;;8.05;;
22007;SDS011;11168;56.976;24.168;2023-03-07T06:12:29;23.70;;;8.95;;
22007;SDS011;11168;56.976;24.168;2023-03-07T06:14:56;14.65;;;6.05;;
22007;SDS011;11168;56.976;24.168;2023-03-07T06:17:23;16.88;;;7.72;;
22007;SDS011;11168;56.976;24.168;2023-03-07T06:19:50;26.17;;;10.98;;
22007;SDS011;11168;56.976;24.168;2023-03-07T06:22:17;24.17;;;11.45;;
22007;SDS011;11168;56.976;24.168;2023-03-07T06:24:44;27.65;;;11.80;;
22007;SDS011;11168;56.976;24.168;2023-03-07T06:27:11;19.35;;;9.18;;
22007;SDS011;11168;56.976;24.168;2023-03-07T06:29:38;23.45;;;9.43;;
22007;SDS011;11168;56.976;24.168;2023-03-07T06:32:06;24.75;;;10.25;;
22007;SDS011;11168;56.976;24.168;2023-03-07T06:34:33;19.88;;;9.43;;
22007;SDS011;11168;56.976;24.168;2023-03-07T06:37:02;19.98;;;9.30;;
22007;SDS011;11168;56.976;24.168;2023-03-07T06:39:29;20.17;;;9.82;;
22007;SDS011;11168;56.976;24.168;2023-03-07T06:41:56;23.38;;;10.38;;
22007;SDS011;11168;56.976;24.168;2023-03-07T06:44:23;19.13;;;8.88;;
22007;SDS011;11168;56.976;24.168;2023-03-07T06:46:50;22.38;;;8.95;;
22007;SDS011;11168;56.976;24.168;2023-03-07T06:49:17;21.90;;;8.60;;
22007;SDS011;11168;56.976;24.168;2023-03-07T06:51:44;19.75;;;8.65;;
22007;SDS011;11168;56.976;24.168;2023-03-07T06:54:11;20.90;;;9.48;;
22007;SDS011;11168;56.976;24.168;2023-03-07T06:56:38;16.83;;;8.82;;
22007;SDS011;11168;56.976;24.168;2023-03-07T06:59:05;15.85;;;7.53;;
22007;SDS011;11168;56.976;24.168;2023-03-07T07:01:32;18.25;;;8.23;;
22007;SDS011;11168;56.976;24.168;2023-03-07T07:04:01;19.38;;;8.98;;
22007;SDS011;11168;56.976;24.168;2023-03-07T07:06:28;15.07;;;7.45;;
22007;SDS011;11168;56.976;24.168;2023-03-07T07:08:56;23.92;;;8.30;;
22007;SDS011;11168;56.976;24.168;2023-03-07T07:11:23;21.58;;;9.18;;
22007;SDS011;11168;56.976;24.168;2023-03-07T07:13:51;15.73;;;6.60;;
22007;SDS011;11168;56.976;24.168;2023-03-07T07:16:17;20.55;;;9.07;;
22007;SDS011;11168;56.976;24.168;2023-03-07T07:18:44;20.05;;;7.97;;
22007;SDS011;11168;56.976;24.168;2023-03-07T07:21:12;19.35;;;8.85;;
22007;SDS011;11168;56.976;24.168;2023-03-07T07:23:38;14.82;;;6.85;;
22007;SDS011;11168;56.976;24.168;2023-03-07T07:26:06;14.15;;;6.97;;
22007;SDS011;11168;56.976;24.168;2023-03-07T07:28:33;15.70;;;6.80;;
22007;SDS011;11168;56.976;24.168;2023-03-07T07:31:00;14.90;;;6.80;;
22007;SDS011;11168;56.976;24.168;2023-03-07T07:33:27;15.90;;;7.00;;
22007;SDS011;11168;56.976;24.168;2023-03-07T07:35:58;14.35;;;7.22;;
22007;SDS011;11168;56.976;24.168;2023-03-07T07:38:25;13.80;;;7.32;;
22007;SDS011;11168;56.976;24.168;2023-03-07T07:40:52;14.90;;;7.88;;
22007;SDS011;11168;56.976;24.168;2023-03-07T07:43:21;13.15;;;7.15;;
22007;SDS011;11168;56.976;24.168;2023-03-07T07:45:48;13.15;;;6.80;;
22007;SDS011;11168;56.976;24.168;2023-03-07T07:48:15;11.95;;;6.03;;
22007;SDS011;11168;56.976;24.168;2023-03-07T07:50:42;10.13;;;5.70;;
22007;SDS011;11168;56.976;24.168;2023-03-07T07:53:09;10.82;;;5.30;;
22007;SDS011;11168;56.976;24.168;2023-03-07T07:55:36;10.88;;;6.22;;
22007;SDS011;11168;56.976;24.168;2023-03-07T07:58:03;12.73;;;5.82;;
22007;SDS011;11168;56.976;24.168;2023-03-07T08:00:30;14.70;;;6.43;;
22007;SDS011;11168;56.976;24.168;2023-03-07T08:02:57;13.05;;;6.03;;
22007;SDS011;11168;56.976;24.168;2023-03-07T08:05:25;14.45;;;5.53;;
22007;SDS011;11168;56.976;24.168;2023-03-07T08:07:52;11.60;;;5.78;;
22007;SDS011;11168;56.976;24.168;2023-03-07T08:10:19;10.80;;;5.32;;
22007;SDS011;11168;56.976;24.168;2023-03-07T08:12:47;10.65;;;5.50;;
22007;SDS011;11168;56.976;24.168;2023-03-07T08:15:19;11.13;;;5.70;;
22007;SDS011;11168;56.976;24.168;2023-03-07T08:17:49;10.00;;;4.43;;
22007;SDS011;11168;56.976;24.168;2023-03-07T08:20:18;10.80;;;5.30;;
22007;SDS011;11168;56.976;24.168;2023-03-07T08:22:48;8.73;;;4.75;;
22007;SDS011;11168;56.976;24.168;2023-03-07T08:25:17;11.15;;;4.40;;
22007;SDS011;11168;56.976;24.168;2023-03-07T08:27:47;9.30;;;4.70;;
22007;SDS011;11168;56.976;24.168;2023-03-07T08:30:18;6.82;;;3.92;;
22007;SDS011;11168;56.976;24.168;2023-03-07T08:32:53;6.82;;;3.13;;
22007;SDS011;11168;56.976;24.168;2023-03-07T08:35:22;5.43;;;3.40;;
22007;SDS011;11168;56.976;24.168;2023-03-07T08:37:55;8.52;;;3.50;;
22007;SDS011;11168;56.976;24.168;2023-03-07T08:40:24;8.38;;;3.72;;
22007;SDS011;11168;56.976;24.168;2023-03-07T08:42:53;10.30;;;3.80;;
22007;SDS011;11168;56.976;24.168;2023-03-07T08:45:23;11.38;;;3.80;;
22007;SDS011;11168;56.976;24.168;2023-03-07T08:47:53;8.75;;;3.65;;
22007;SDS011;11168;56.976;24.168;2023-03-07T08:52:49;10.85;;;3.90;;
22007;SDS011;11168;56.976;24.168;2023-03-07T08:55:16;8.40;;;3.28;;
22007;SDS011;11168;56.976;24.168;2023-03-07T08:57:43;6.55;;;3.63;;
22007;SDS011;11168;56.976;24.168;2023-03-07T09:00:12;9.75;;;3.63;;
22007;SDS011;11168;56.976;24.168;2023-03-07T09:02:40;4.03;;;2.70;;
22007;SDS011;11168;56.976;24.168;2023-03-07T09:05:07;6.55;;;2.60;;
22007;SDS011;11168;56.976;24.168;2023-03-07T09:07:34;8.00;;;3.60;;
22007;SDS011;11168;56.976;24.168;2023-03-07T09:10:01;6.10;;;3.55;;
22007;SDS011;11168;56.976;24.168;2023-03-07T09:12:32;4.95;;;2.80;;
22007;SDS011;11168;56.976;24.168;2023-03-07T09:14:59;5.72;;;2.08;;
22007;SDS011;11168;56.976;24.168;2023-03-07T09:17:26;7.32;;;3.20;;
22007;SDS011;11168;56.976;24.168;2023-03-07T09:19:53;5.97;;;3.03;;
22007;SDS011;11168;56.976;24.168;2023-03-07T09:22:25;6.70;;;2.78;;
22007;SDS011;11168;56.976;24.168;2023-03-07T09:24:52;9.85;;;3.85;;
22007;SDS011;11168;56.976;24.168;2023-03-07T09:27:19;7.95;;;4.18;;
22007;SDS011;11168;56.976;24.168;2023-03-07T09:29:47;9.05;;;4.55;;
22007;SDS011;11168;56.976;24.168;2023-03-07T09:32:14;8.98;;;4.63;;
22007;SDS011;11168;56.976;24.168;2023-03-07T09:34:41;8.85;;;3.72;;
22007;SDS011;11168;56.976;24.168;2023-03-07T09:37:08;8.23;;;3.97;;
22007;SDS011;11168;56.976;24.168;2023-03-07T09:39:36;10.50;;;3.47;;
22007;SDS011;11168;56.976;24.168;2023-03-07T09:49:49;9.25;;;5.07;;
22007;SDS011;11168;56.976;24.168;2023-03-07T09:52:24;12.68;;;5.40;;
22007;SDS011;11168;56.976;24.168;2023-03-07T09:54:58;8.98;;;4.55;;
22007;SDS011;11168;56.976;24.168;2023-03-07T09:57:40;7.95;;;5.22;;
22007;SDS011;11168;56.976;24.168;2023-03-07T10:00:18;10.50;;;5.20;;
22007;SDS011;11168;56.976;24.168;2023-03-07T10:02:56;8.32;;;4.70;;
22007;SDS011;11168;56.976;24.168;2023-03-07T10:05:42;6.65;;;3.80;;
22007;SDS011;11168;56.976;24.168;2023-03-07T10:08:15;7.57;;;4.35;;
22007;SDS011;11168;56.976;24.168;2023-03-07T10:19:45;6.20;;;3.13;;
22007;SDS011;11168;56.976;24.168;2023-03-07T10:22:17;4.90;;;1.60;;
22007;SDS011;11168;56.976;24.168;2023-03-07T10:25:06;2.60;;;1.42;;
22007;SDS011;11168;56.976;24.168;2023-03-07T10:27:43;5.82;;;2.47;;
22007;SDS011;11168;56.976;24.168;2023-03-07T10:30:16;3.65;;;1.75;;
22007;SDS011;11168;56.976;24.168;2023-03-07T10:32:46;3.40;;;1.55;;
22007;SDS011;11168;56.976;24.168;2023-03-07T10:35:19;3.50;;;1.85;;
22007;SDS011;11168;56.976;24.168;2023-03-07T10:38:01;4.28;;;1.95;;
22007;SDS011;11168;56.976;24.168;2023-03-07T10:43:39;4.90;;;2.40;;
22007;SDS011;11168;56.976;24.168;2023-03-07T10:54:31;4.15;;;2.17;;
22007;SDS011;11168;56.976;24.168;2023-03-07T10:57:13;3.22;;;1.88;;
22007;SDS011;11168;56.976;24.168;2023-03-07T10:59:42;6.70;;;2.33;;
22007;SDS011;11168;56.976;24.168;2023-03-07T11:05:17;4.28;;;1.90;;
22007;SDS011;11168;56.976;24.168;2023-03-07T11:07:49;7.65;;;1.90;;
22007;SDS011;11168;56.976;24.168;2023-03-07T11:10:34;5.25;;;2.67;;
22007;SDS011;11168;56.976;24.168;2023-03-07T11:13:15;5.07;;;2.50;;
22007;SDS011;11168;56.976;24.168;2023-03-07T11:15:44;4.10;;;1.50;;
22007;SDS011;11168;56.976;24.168;2023-03-07T11:18:31;3.47;;;1.88;;
22007;SDS011;11168;56.976;24.168;2023-03-07T11:21:04;4.10;;;1.90;;
22007;SDS011;11168;56.976;24.168;2023-03-07T11:23:31;4.35;;;2.22;;
22007;SDS011;11168;56.976;24.168;2023-03-07T11:26:15;5.57;;;2.08;;
22007;SDS011;11168;56.976;24.168;2023-03-07T11:28:47;3.88;;;1.60;;
22007;SDS011;11168;56.976;24.168;2023-03-07T11:31:34;4.25;;;1.75;;
22007;SDS011;11168;56.976;24.168;2023-03-07T11:37:00;3.63;;;1.80;;
22007;SDS011;11168;56.976;24.168;2023-03-07T11:39:55;6.65;;;2.60;;
22007;SDS011;11168;56.976;24.168;2023-03-07T11:42:37;4.57;;;2.00;;
22007;SDS011;11168;56.976;24.168;2023-03-07T11:48:14;5.93;;;1.80;;
22007;SDS011;11168;56.976;24.168;2023-03-07T11:50:48;6.32;;;2.00;;
22007;SDS011;11168;56.976;24.168;2023-03-07T12:01:26;4.55;;;2.67;;
22007;SDS011;11168;56.976;24.168;2023-03-07T12:04:05;4.82;;;2.40;;
22007;SDS011;11168;56.976;24.168;2023-03-07T12:07:05;6.38;;;2.38;;
22007;SDS011;11168;56.976;24.168;2023-03-07T12:12:52;4.38;;;2.60;;
22007;SDS011;11168;56.976;24.168;2023-03-07T12:21:21;14.32;;;3.22;;
22007;SDS011;11168;56.976;24.168;2023-03-07T12:24:09;4.47;;;2.33;;
22007;SDS011;11168;56.976;24.168;2023-03-07T12:26:56;9.55;;;3.20;;
22007;SDS011;11168;56.976;24.168;2023-03-07T12:32:00;5.07;;;3.10;;
22007;SDS011;11168;56.976;24.168;2023-03-07T12:34:42;8.57;;;3.08;;
22007;SDS011;11168;56.976;24.168;2023-03-07T12:37:40;10.35;;;3.47;;
22007;SDS011;11168;56.976;24.168;2023-03-07T12:43:20;5.78;;;3.25;;
22007;SDS011;11168;56.976;24.168;2023-03-07T12:48:39;7.32;;;3.85;;
22007;SDS011;11168;56.976;24.168;2023-03-07T12:51:18;6.20;;;3.15;;
22007;SDS011;11168;56.976;24.168;2023-03-07T12:54:01;8.65;;;3.58;;
22007;SDS011;11168;56.976;24.168;2023-03-07T12:59:22;5.80;;;3.55;;
22007;SDS011;11168;56.976;24.168;2023-03-07T13:02:10;6.70;;;3.17;;
22007;SDS011;11168;56.976;24.168;2023-03-07T13:04:43;6.00;;;3.20;;
22007;SDS011;11168;56.976;24.168;2023-03-07T13:07:12;8.95;;;3.15;;
22007;SDS011;11168;56.976;24.168;2023-03-07T13:09:41;7.15;;;2.92;;
22007;SDS011;11168;56.976;24.168;2023-03-07T13:14:52;6.75;;;3.50;;
22007;SDS011;11168;56.976;24.168;2023-03-07T13:19:53;8.38;;;3.33;;
22007;SDS011;11168;56.976;24.168;2023-03-07T13:43:07;5.93;;;3.35;;
22007;SDS011;11168;56.976;24.168;2023-03-07T13:45:57;7.70;;;2.80;;
22007;SDS011;11168;56.976;24.168;2023-03-07T14:01:35;4.78;;;2.80;;
22007;SDS011;11168;56.976;24.168;2023-03-07T14:07:21;6.85;;;2.65;;
22007;SDS011;11168;56.976;24.168;2023-03-07T14:21:03;9.35;;;3.42;;
22007;SDS011;11168;56.976;24.168;2023-03-07T14:26:31;7.05;;;2.22;;
22007;SDS011;11168;56.976;24.168;2023-03-07T14:29:00;4.88;;;2.55;;
22007;SDS011;11168;56.976;24.168;2023-03-07T14:31:38;6.35;;;2.70;;
22007;SDS011;11168;56.976;24.168;2023-03-07T14:36:59;11.10;;;2.92;;
22007;SDS011;11168;56.976;24.168;2023-03-07T14:39:30;7.93;;;3.03;;
22007;SDS011;11168;56.976;24.168;2023-03-07T14:50:43;5.85;;;2.40;;
22007;SDS011;11168;56.976;24.168;2023-03-07T14:53:21;7.15;;;2.65;;
22007;SDS011;11168;56.976;24.168;2023-03-07T14:55:51;9.35;;;2.92;;
22007;SDS011;11168;56.976;24.168;2023-03-07T14:58:23;4.63;;;2.30;;
22007;SDS011;11168;56.976;24.168;2023-03-07T15:01:10;4.97;;;2.67;;
22007;SDS011;11168;56.976;24.168;2023-03-07T15:03:48;6.68;;;2.67;;
22007;SDS011;11168;56.976;24.168;2023-03-07T15:06:20;7.97;;;2.88;;
22007;SDS011;11168;56.976;24.168;2023-03-07T15:08:49;4.85;;;2.38;;
22007;SDS011;11168;56.976;24.168;2023-03-07T15:14:03;5.95;;;3.10;;
22007;SDS011;11168;56.976;24.168;2023-03-07T15:16:39;7.22;;;2.42;;
22007;SDS011;11168;56.976;24.168;2023-03-07T15:19:13;5.20;;;2.40;;
22007;SDS011;11168;56.976;24.168;2023-03-07T15:21:46;6.13;;;2.28;;
22007;SDS011;11168;56.976;24.168;2023-03-07T15:27:04;8.07;;;2.85;;
22007;SDS011;11168;56.976;24.168;2023-03-07T15:29:35;5.72;;;2.50;;
22007;SDS011;11168;56.976;24.168;2023-03-07T15:32:05;4.82;;;2.38;;
22007;SDS011;11168;56.976;24.168;2023-03-07T15:34:59;6.90;;;2.80;;
22007;SDS011;11168;56.976;24.168;2023-03-07T15:37:33;6.53;;;2.20;;
22007;SDS011;11168;56.976;24.168;2023-03-07T15:40:14;4.55;;;2.40;;
22007;SDS011;11168;56.976;24.168;2023-03-07T15:42:49;4.75;;;2.15;;
22007;SDS011;11168;56.976;24.168;2023-03-07T15:45:41;6.68;;;2.38;;
22007;SDS011;11168;56.976;24.168;2023-03-07T15:51:10;3.38;;;1.92;;
22007;SDS011;11168;56.976;24.168;2023-03-07T15:54:00;3.67;;;1.88;;
22007;SDS011;11168;56.976;24.168;2023-03-07T15:56:54;5.47;;;1.90;;
22007;SDS011;11168;56.976;24.168;2023-03-07T15:59:30;5.57;;;2.00;;
22007;SDS011;11168;56.976;24.168;2023-03-07T16:04:59;4.28;;;2.13;;
22007;SDS011;11168;56.976;24.168;2023-03-07T16:07:31;5.63;;;2.03;;
22007;SDS011;11168;56.976;24.168;2023-03-07T16:09:58;6.47;;;2.00;;
22007;SDS011;11168;56.976;24.168;2023-03-07T16:12:25;4.43;;;1.50;;
22007;SDS011;11168;56.976;24.168;2023-03-07T16:14:52;5.07;;;1.95;;
22007;SDS011;11168;56.976;24.168;2023-03-07T16:17:32;5.65;;;1.83;;
22007;SDS011;11168;56.976;24.168;2023-03-07T16:20:02;3.47;;;2.05;;
22007;SDS011;11168;56.976;24.168;2023-03-07T16:22:30;4.90;;;2.00;;
22007;SDS011;11168;56.976;24.168;2023-03-07T16:24:57;6.13;;;1.90;;
22007;SDS011;11168;56.976;24.168;2023-03-07T16:27:24;2.30;;;1.70;;
22007;SDS011;11168;56.976;24.168;2023-03-07T16:29:51;5.28;;;1.70;;
22007;SDS011;11168;56.976;24.168;2023-03-07T16:32:19;4.30;;;1.63;;
22007;SDS011;11168;56.976;24.168;2023-03-07T16:34:47;3.42;;;1.70;;
22007;SDS011;11168;56.976;24.168;2023-03-07T16:37:14;4.22;;;1.73;;
22007;SDS011;11168;56.976;24.168;2023-03-07T16:39:42;3.08;;;1.52;;
22007;SDS011;11168;56.976;24.168;2023-03-07T16:42:17;2.85;;;1.58;;
22007;SDS011;11168;56.976;24.168;2023-03-07T16:44:52;4.82;;;1.83;;
22007;SDS011;11168;56.976;24.168;2023-03-07T16:47:19;5.82;;;1.63;;
22007;SDS011;11168;56.976;24.168;2023-03-07T16:49:46;4.03;;;1.73;;
22007;SDS011;11168;56.976;24.168;2023-03-07T16:52:14;5.45;;;1.90;;
22007;SDS011;11168;56.976;24.168;2023-03-07T16:54:41;6.95;;;1.90;;
22007;SDS011;11168;56.976;24.168;2023-03-07T16:57:11;2.70;;;1.67;;
22007;SDS011;11168;56.976;24.168;2023-03-07T16:59:42;3.30;;;1.65;;
22007;SDS011;11168;56.976;24.168;2023-03-07T17:02:16;4.68;;;1.67;;
22007;SDS011;11168;56.976;24.168;2023-03-07T17:04:44;5.75;;;2.45;;
22007;SDS011;11168;56.976;24.168;2023-03-07T17:07:19;5.05;;;2.90;;
22007;SDS011;11168;56.976;24.168;2023-03-07T17:09:47;7.38;;;2.90;;
22007;SDS011;11168;56.976;24.168;2023-03-07T17:12:14;6.00;;;3.75;;
22007;SDS011;11168;56.976;24.168;2023-03-07T17:14:43;7.53;;;3.55;;
22007;SDS011;11168;56.976;24.168;2023-03-07T17:17:16;7.45;;;3.83;;